North Hampton, Illinois
Current Conditions -  °F | °C
As of 5:55 AM on Wednesday 28 Jan 2015 (Local Time) from KC75 Reporting Station
Scattered Clouds Scattered Clouds  
Wind Chill: 17°   Ceiling: Unl
Heat Index: 24°   Visibility: 7mi
Dew Point: 20°   Wind: 6mph
Humidity: 85%   Direction: 140°SE
Pressure: 30.26"   Gusts: NA
Location:  40.915°N, 89.5303°W
Report Text: KC75 281155Z AUTO 14005KT 7SM SCT017 SCT110 M04/M07 A3026 RMK AO2 T10451066 11015 21045
Loading
Personal Weather Stations






























Interactive Weather Map New forecast layout! Learn more

10-Day Weather Forecast

Advertisements
Track Severe Weather on mobile